sensor_id;sensor_type;location;lat;lon;timestamp;pressure;altitude;pressure_sealevel;temperature;humidity
75650;BME280;64245;51.282;22.494;2023-02-28T00:01:32;100588.41;;;-3.53;71.29
75650;BME280;64245;51.282;22.494;2023-02-28T00:03:58;100570.25;;;-3.70;72.54
75650;BME280;64245;51.282;22.494;2023-02-28T00:06:23;100591.31;;;-3.70;71.82
75650;BME280;64245;51.282;22.494;2023-02-28T00:08:49;100574.72;;;-3.76;73.37
75650;BME280;64245;51.282;22.494;2023-02-28T00:11:16;100585.88;;;-3.61;73.12
75650;BME280;64245;51.282;22.494;2023-02-28T00:13:45;100591.34;;;-3.73;74.25
75650;BME280;64245;51.282;22.494;2023-02-28T00:16:17;100593.34;;;-3.89;75.93
75650;BME280;64245;51.282;22.494;2023-02-28T00:18:43;100572.59;;;-4.10;76.99
75650;BME280;64245;51.282;22.494;2023-02-28T00:21:09;100584.91;;;-4.12;78.55
75650;BME280;64245;51.282;22.494;2023-02-28T00:23:35;100572.06;;;-4.35;77.37
75650;BME280;64245;51.282;22.494;2023-02-28T00:26:01;100573.84;;;-4.37;77.95
75650;BME280;64245;51.282;22.494;2023-02-28T00:28:27;100560.81;;;-4.44;79.01
75650;BME280;64245;51.282;22.494;2023-02-28T00:30:53;100573.03;;;-4.42;80.23
75650;BME280;64245;51.282;22.494;2023-02-28T00:33:19;100563.59;;;-4.57;81.58
75650;BME280;64245;51.282;22.494;2023-02-28T00:35:44;100580.28;;;-4.61;80.85
75650;BME280;64245;51.282;22.494;2023-02-28T00:38:15;100575.09;;;-4.67;80.89
75650;BME280;64245;51.282;22.494;2023-02-28T00:40:41;100575.31;;;-4.85;80.97
75650;BME280;64245;51.282;22.494;2023-02-28T00:43:07;100585.91;;;-4.93;79.88
75650;BME280;64245;51.282;22.494;2023-02-28T00:45:32;100567.69;;;-5.08;79.71
75650;BME280;64245;51.282;22.494;2023-02-28T00:47:58;100579.13;;;-5.15;79.41
75650;BME280;64245;51.282;22.494;2023-02-28T00:50:24;100585.25;;;-5.13;81.46
75650;BME280;64245;51.282;22.494;2023-02-28T00:52:50;100576.56;;;-5.19;81.28
75650;BME280;64245;51.282;22.494;2023-02-28T00:55:15;100588.84;;;-5.20;82.67
75650;BME280;64245;51.282;22.494;2023-02-28T00:57:41;100588.84;;;-5.22;80.82
75650;BME280;64245;51.282;22.494;2023-02-28T01:00:08;100576.63;;;-5.26;79.49
75650;BME280;64245;51.282;22.494;2023-02-28T01:02:34;100589.63;;;-5.15;79.75
75650;BME280;64245;51.282;22.494;2023-02-28T01:05:00;100587.13;;;-5.27;79.63
75650;BME280;64245;51.282;22.494;2023-02-28T01:07:26;100569.78;;;-5.40;80.80
75650;BME280;64245;51.282;22.494;2023-02-28T01:09:51;100568.09;;;-5.49;82.05
75650;BME280;64245;51.282;22.494;2023-02-28T01:12:17;100568.94;;;-5.45;81.44
75650;BME280;64245;51.282;22.494;2023-02-28T01:14:42;100572.41;;;-5.42;81.35
75650;BME280;64245;51.282;22.494;2023-02-28T01:17:08;100594.16;;;-5.31;81.78
75650;BME280;64245;51.282;22.494;2023-02-28T01:19:34;100588.97;;;-5.38;81.83
75650;BME280;64245;51.282;22.494;2023-02-28T01:22:04;100585.44;;;-5.34;82.45
75650;BME280;64245;51.282;22.494;2023-02-28T01:24:30;100582.84;;;-5.37;81.67
75650;BME280;64245;51.282;22.494;2023-02-28T01:26:56;100569.06;;;-5.59;82.93
75650;BME280;64245;51.282;22.494;2023-02-28T01:29:22;100578.59;;;-5.52;83.35
75650;BME280;64245;51.282;22.494;2023-02-28T01:31:47;100581.22;;;-5.50;83.94
75650;BME280;64245;51.282;22.494;2023-02-28T01:34:13;100574.25;;;-5.56;84.01
75650;BME280;64245;51.282;22.494;2023-02-28T01:36:39;100564.72;;;-5.63;83.08
75650;BME280;64245;51.282;22.494;2023-02-28T01:39:04;100569.06;;;-5.59;81.83
75650;BME280;64245;51.282;22.494;2023-02-28T01:41:32;100556.78;;;-5.57;82.94
75650;BME280;64245;51.282;22.494;2023-02-28T01:46:35;100582.81;;;-5.36;82.79
75650;BME280;64245;51.282;22.494;2023-02-28T01:49:13;100582.03;;;-5.41;83.16
75650;BME280;64245;51.282;22.494;2023-02-28T01:51:53;100570.84;;;-5.64;83.36
75650;BME280;64245;51.282;22.494;2023-02-28T01:54:24;100577.88;;;-5.69;85.04
75650;BME280;64245;51.282;22.494;2023-02-28T01:56:58;100573.53;;;-5.75;85.67
75650;BME280;64245;51.282;22.494;2023-02-28T01:59:50;100577.06;;;-5.77;84.82
75650;BME280;64245;51.282;22.494;2023-02-28T02:02:19;100549.84;;;-5.63;82.24
75650;BME280;64245;51.282;22.494;2023-02-28T02:04:54;100575.03;;;-5.42;81.83
75650;BME280;64245;51.282;22.494;2023-02-28T02:07:21;100558.41;;;-5.44;80.12
75650;BME280;64245;51.282;22.494;2023-02-28T02:09:47;100552.56;;;-5.76;81.90
75650;BME280;64245;51.282;22.494;2023-02-28T02:12:42;100577.00;;;-5.71;83.22
75650;BME280;64245;51.282;22.494;2023-02-28T02:15:32;100595.41;;;-5.76;84.73
75650;BME280;64245;51.282;22.494;2023-02-28T02:18:09;100585.91;;;-5.89;84.64
75650;BME280;64245;51.282;22.494;2023-02-28T02:25:45;100598.97;;;-5.83;83.85
75650;BME280;64245;51.282;22.494;2023-02-28T02:34:23;100613.94;;;-5.96;87.49
75650;BME280;64245;51.282;22.494;2023-02-28T02:37:24;100607.00;;;-6.00;89.29
75650;BME280;64245;51.282;22.494;2023-02-28T02:40:07;100612.25;;;-6.01;89.83
75650;BME280;64245;51.282;22.494;2023-02-28T02:42:40;100611.38;;;-6.06;90.14
75650;BME280;64245;51.282;22.494;2023-02-28T02:45:36;100616.59;;;-5.99;89.13
75650;BME280;64245;51.282;22.494;2023-02-28T02:48:07;100607.84;;;-5.98;88.63
75650;BME280;64245;51.282;22.494;2023-02-28T02:50:39;100619.22;;;-6.00;89.61
75650;BME280;64245;51.282;22.494;2023-02-28T02:53:08;100624.25;;;-5.76;86.90
75650;BME280;64245;51.282;22.494;2023-02-28T02:55:38;100625.22;;;-5.87;86.55
75650;BME280;64245;51.282;22.494;2023-02-28T02:58:10;100609.63;;;-6.04;87.00
75650;BME280;64245;51.282;22.494;2023-02-28T03:00:43;100611.34;;;-6.00;88.23
75650;BME280;64245;51.282;22.494;2023-02-28T03:03:12;100615.72;;;-5.99;88.09
75650;BME280;64245;51.282;22.494;2023-02-28T03:05:46;100588.66;;;-6.06;87.52
75650;BME280;64245;51.282;22.494;2023-02-28T03:08:12;100614.91;;;-6.10;88.75
75650;BME280;64245;51.282;22.494;2023-02-28T03:10:44;100621.91;;;-6.12;90.14
75650;BME280;64245;51.282;22.494;2023-02-28T03:16:15;100600.13;;;-6.23;90.03
75650;BME280;64245;51.282;22.494;2023-02-28T03:18:54;100614.09;;;-6.20;90.15
75650;BME280;64245;51.282;22.494;2023-02-28T03:24:22;100619.25;;;-6.08;90.30
75650;BME280;64245;51.282;22.494;2023-02-28T03:26:52;100615.78;;;-6.11;90.11
75650;BME280;64245;51.282;22.494;2023-02-28T03:29:28;100604.50;;;-6.25;90.25
75650;BME280;64245;51.282;22.494;2023-02-28T03:32:02;100616.72;;;-6.24;90.10
75650;BME280;64245;51.282;22.494;2023-02-28T03:34:34;100619.34;;;-6.23;90.21
75650;BME280;64245;51.282;22.494;2023-02-28T03:37:13;100624.59;;;-6.21;89.87
75650;BME280;64245;51.282;22.494;2023-02-28T03:39:47;100622.84;;;-6.21;89.00
75650;BME280;64245;51.282;22.494;2023-02-28T03:42:20;100616.75;;;-6.31;89.72
75650;BME280;64245;51.282;22.494;2023-02-28T03:44:54;100633.34;;;-6.32;89.84
75650;BME280;64245;51.282;22.494;2023-02-28T03:47:32;100638.66;;;-6.39;90.15
75650;BME280;64245;51.282;22.494;2023-02-28T03:50:12;100627.28;;;-6.40;90.54
75650;BME280;64245;51.282;22.494;2023-02-28T03:52:44;100628.16;;;-6.41;90.39
75650;BME280;64245;51.282;22.494;2023-02-28T03:55:13;100639.53;;;-6.40;90.31
75650;BME280;64245;51.282;22.494;2023-02-28T03:57:43;100635.16;;;-6.43;90.11
75650;BME280;64245;51.282;22.494;2023-02-28T04:00:20;100639.53;;;-6.46;90.59
75650;BME280;64245;51.282;22.494;2023-02-28T04:02:46;100644.78;;;-6.51;90.63
75650;BME280;64245;51.282;22.494;2023-02-28T04:05:21;100639.59;;;-6.60;90.42
75650;BME280;64245;51.282;22.494;2023-02-28T04:07:48;100638.72;;;-6.57;90.42
75650;BME280;64245;51.282;22.494;2023-02-28T04:10:15;100648.28;;;-6.52;89.75
75650;BME280;64245;51.282;22.494;2023-02-28T04:12:41;100638.72;;;-6.57;90.25
75650;BME280;64245;51.282;22.494;2023-02-28T04:15:07;100633.50;;;-6.67;91.25
75650;BME280;64245;51.282;22.494;2023-02-28T04:17:33;100643.09;;;-6.58;91.23
75650;BME280;64245;51.282;22.494;2023-02-28T04:19:58;100652.69;;;-6.63;91.25
75650;BME280;64245;51.282;22.494;2023-02-28T04:22:24;100640.53;;;-6.75;91.40
75650;BME280;64245;51.282;22.494;2023-02-28T04:24:52;100642.22;;;-6.71;91.40
75650;BME280;64245;51.282;22.494;2023-02-28T04:27:21;100643.09;;;-6.69;91.54
75650;BME280;64245;51.282;22.494;2023-02-28T04:29:46;100633.50;;;-6.68;90.51
75650;BME280;64245;51.282;22.494;2023-02-28T04:32:12;100654.38;;;-6.45;91.80
75650;BME280;64245;51.282;22.494;2023-02-28T04:34:38;100657.00;;;-6.44;92.01
75650;BME280;64245;51.282;22.494;2023-02-28T04:37:05;100644.78;;;-6.51;92.35
75650;BME280;64245;51.282;22.494;2023-02-28T04:39:35;100630.00;;;-6.61;92.43
75650;BME280;64245;51.282;22.494;2023-02-28T04:42:00;100646.53;;;-6.44;91.80
75650;BME280;64245;51.282;22.494;2023-02-28T04:44:26;100651.78;;;-6.48;91.98
75650;BME280;64245;51.282;22.494;2023-02-28T04:46:52;100639.59;;;-6.55;91.99
75650;BME280;64245;51.282;22.494;2023-02-28T04:49:17;100647.41;;;-6.43;91.19
75650;BME280;64245;51.282;22.494;2023-02-28T04:51:43;100637.72;;;-6.32;91.00
75650;BME280;64245;51.282;22.494;2023-02-28T04:54:08;100635.97;;;-6.27;91.68
75650;BME280;64245;51.282;22.494;2023-02-28T04:56:34;100640.34;;;-6.29;93.25
75650;BME280;64245;51.282;22.494;2023-02-28T04:59:00;100654.31;;;-6.29;94.31
75650;BME280;64245;51.282;22.494;2023-02-28T05:01:28;100648.19;;;-6.28;95.16
75650;BME280;64245;51.282;22.494;2023-02-28T05:03:57;100657.78;;;-6.25;95.54
75650;BME280;64245;51.282;22.494;2023-02-28T05:06:25;100654.28;;;-6.16;95.83
75650;BME280;64245;51.282;22.494;2023-02-28T05:08:51;100647.28;;;-6.16;95.54
75650;BME280;64245;51.282;22.494;2023-02-28T05:11:23;100638.56;;;-6.21;94.57
75650;BME280;64245;51.282;22.494;2023-02-28T05:13:50;100649.91;;;-6.20;94.03
75650;BME280;64245;51.282;22.494;2023-02-28T05:16:17;100656.06;;;-6.31;93.86
75650;BME280;64245;51.282;22.494;2023-02-28T05:18:43;100668.34;;;-6.36;94.90
75650;BME280;64245;51.282;22.494;2023-02-28T05:21:25;100663.91;;;-6.17;94.36
75650;BME280;64245;51.282;22.494;2023-02-28T05:23:51;100652.53;;;-6.20;94.85
75650;BME280;64245;51.282;22.494;2023-02-28T05:26:18;100658.66;;;-6.17;95.16
75650;BME280;64245;51.282;22.494;2023-02-28T05:28:44;100663.91;;;-6.17;94.90
75650;BME280;64245;51.282;22.494;2023-02-28T05:31:13;100656.94;;;-6.25;94.78
75650;BME280;64245;51.282;22.494;2023-02-28T05:33:38;100657.78;;;-6.25;94.57
75650;BME280;64245;51.282;22.494;2023-02-28T05:36:05;100666.53;;;-6.18;94.44
75650;BME280;64245;51.282;22.494;2023-02-28T05:38:31;100667.41;;;-6.22;94.49
75650;BME280;64245;51.282;22.494;2023-02-28T05:40:57;100668.28;;;-6.20;94.54
75650;BME280;64245;51.282;22.494;2023-02-28T05:43:22;100669.13;;;-6.17;93.78
75650;BME280;64245;51.282;22.494;2023-02-28T05:45:48;100681.38;;;-6.16;94.25
75650;BME280;64245;51.282;22.494;2023-02-28T05:48:14;100667.22;;;-5.89;93.50
75650;BME280;64245;51.282;22.494;2023-02-28T05:50:40;100666.97;;;-5.57;92.31
75650;BME280;64245;51.282;22.494;2023-02-28T05:53:06;100658.31;;;-5.64;91.83
75650;BME280;64245;51.282;22.494;2023-02-28T05:55:31;100656.56;;;-5.66;91.28
75650;BME280;64245;51.282;22.494;2023-02-28T05:57:57;100675.63;;;-5.40;90.21
75650;BME280;64245;51.282;22.494;2023-02-28T06:00:23;100678.13;;;-5.23;89.68
75650;BME280;64245;51.282;22.494;2023-02-28T06:02:49;100657.00;;;-5.11;88.19
75650;BME280;64245;51.282;22.494;2023-02-28T06:05:17;100670.91;;;-5.00;87.32
75650;BME280;64245;51.282;22.494;2023-02-28T06:07:43;100680.50;;;-4.96;86.28
75650;BME280;64245;51.282;22.494;2023-02-28T06:10:10;100688.56;;;-5.17;87.65
75650;BME280;64245;51.282;22.494;2023-02-28T06:12:37;100681.28;;;-4.83;86.90
75650;BME280;64245;51.282;22.494;2023-02-28T06:15:03;100661.91;;;-4.76;85.93
75650;BME280;64245;51.282;22.494;2023-02-28T06:17:29;100681.88;;;-4.58;85.54
75650;BME280;64245;51.282;22.494;2023-02-28T06:19:55;100680.97;;;-4.54;85.00
75650;BME280;64245;51.282;22.494;2023-02-28T06:22:20;100692.41;;;-4.61;85.21
75650;BME280;64245;51.282;22.494;2023-02-28T06:24:46;100681.06;;;-4.63;84.70
75650;BME280;64245;51.282;22.494;2023-02-28T06:27:12;100680.34;;;-4.80;86.01
75650;BME280;64245;51.282;22.494;2023-02-28T06:29:37;100694.91;;;-4.46;85.55
75650;BME280;64245;51.282;22.494;2023-02-28T06:32:05;100688.78;;;-4.45;84.25
75650;BME280;64245;51.282;22.494;2023-02-28T06:34:31;100701.63;;;-4.21;82.85
75650;BME280;64245;51.282;22.494;2023-02-28T06:36:59;100703.25;;;-4.09;82.27
75650;BME280;64245;51.282;22.494;2023-02-28T06:39:30;100695.19;;;-3.97;81.26
75650;BME280;64245;51.282;22.494;2023-02-28T06:41:56;100696.81;;;-3.87;80.67
75650;BME280;64245;51.282;22.494;2023-02-28T06:44:23;100708.16;;;-3.85;81.02
75650;BME280;64245;51.282;22.494;2023-02-28T06:46:49;100704.66;;;-3.84;81.06
75650;BME280;64245;51.282;22.494;2023-02-28T06:49:15;100704.84;;;-3.97;81.47
75650;BME280;64245;51.282;22.494;2023-02-28T06:51:43;100700.38;;;-3.91;81.68
75650;BME280;64245;51.282;22.494;2023-02-28T06:54:12;100701.13;;;-3.83;81.26
75650;BME280;64245;51.282;22.494;2023-02-28T06:56:39;100707.19;;;-3.76;80.53
75650;BME280;64245;51.282;22.494;2023-02-28T06:59:05;100705.41;;;-3.72;80.72
75650;BME280;64245;51.282;22.494;2023-02-28T07:01:30;100703.44;;;-3.58;79.36
75650;BME280;64245;51.282;22.494;2023-02-28T07:03:59;100708.66;;;-3.55;78.81
75650;BME280;64245;51.282;22.494;2023-02-28T07:06:25;100709.59;;;-3.59;78.37
75650;BME280;64245;51.282;22.494;2023-02-28T07:08:53;100715.47;;;-3.42;78.17
75650;BME280;64245;51.282;22.494;2023-02-28T07:11:20;100712.22;;;-3.58;79.69
75650;BME280;64245;51.282;22.494;2023-02-28T07:13:49;100706.00;;;-3.54;79.29
75650;BME280;64245;51.282;22.494;2023-02-28T07:16:16;100698.03;;;-3.47;79.69
75650;BME280;64245;51.282;22.494;2023-02-28T07:18:41;100713.66;;;-3.35;78.64
75650;BME280;64245;51.282;22.494;2023-02-28T07:21:08;100720.50;;;-3.27;78.20
75650;BME280;64245;51.282;22.494;2023-02-28T07:23:35;100693.97;;;-3.11;75.24
75650;BME280;64245;51.282;22.494;2023-02-28T07:26:03;100711.22;;;-2.92;74.33
75650;BME280;64245;51.282;22.494;2023-02-28T07:28:29;100713.88;;;-2.95;75.50
75650;BME280;64245;51.282;22.494;2023-02-28T07:30:55;100718.88;;;-2.79;74.14
75650;BME280;64245;51.282;22.494;2023-02-28T07:33:21;100711.91;;;-2.83;74.33
75650;BME280;64245;51.282;22.494;2023-02-28T07:35:46;100715.13;;;-2.65;73.34
75650;BME280;64245;51.282;22.494;2023-02-28T07:38:12;100720.53;;;-2.73;73.71
75650;BME280;64245;51.282;22.494;2023-02-28T07:40:39;100711.19;;;-2.43;72.39
75650;BME280;64245;51.282;22.494;2023-02-28T07:43:05;100711.56;;;-2.63;73.38
75650;BME280;64245;51.282;22.494;2023-02-28T07:45:31;100715.91;;;-2.60;73.79
75650;BME280;64245;51.282;22.494;2023-02-28T07:48:00;100708.78;;;-2.55;71.78
75650;BME280;64245;51.282;22.494;2023-02-28T07:50:26;100708.63;;;-2.46;71.73
75650;BME280;64245;51.282;22.494;2023-02-28T07:52:54;100703.38;;;-2.49;70.94
75650;BME280;64245;51.282;22.494;2023-02-28T07:55:20;100701.66;;;-2.50;71.51
75650;BME280;64245;51.282;22.494;2023-02-28T07:57:45;100704.09;;;-2.39;71.88
75650;BME280;64245;51.282;22.494;2023-02-28T08:00:11;100707.91;;;-2.10;69.63
75650;BME280;64245;51.282;22.494;2023-02-28T08:02:39;100713.38;;;-2.19;69.73
75650;BME280;64245;51.282;22.494;2023-02-28T08:05:05;100710.50;;;-2.08;70.40
75650;BME280;64245;51.282;22.494;2023-02-28T08:07:31;100688.66;;;-2.13;70.75
75650;BME280;64245;51.282;22.494;2023-02-28T08:09:58;100700.59;;;-1.95;71.09
75650;BME280;64245;51.282;22.494;2023-02-28T08:12:25;100674.41;;;-2.06;70.38
75650;BME280;64245;51.282;22.494;2023-02-28T08:14:50;100697.03;;;-1.93;70.41
75650;BME280;64245;51.282;22.494;2023-02-28T08:17:16;100685.97;;;-1.71;67.93
75650;BME280;64245;51.282;22.494;2023-02-28T08:19:45;100691.22;;;-1.70;69.21
75650;BME280;64245;51.282;22.494;2023-02-28T08:22:10;100694.94;;;-1.79;69.48
75650;BME280;64245;51.282;22.494;2023-02-28T08:24:36;100690.81;;;-1.92;68.28
75650;BME280;64245;51.282;22.494;2023-02-28T08:27:02;100681.44;;;-2.06;68.61
75650;BME280;64245;51.282;22.494;2023-02-28T08:29:27;100671.63;;;-1.98;68.75
75650;BME280;64245;51.282;22.494;2023-02-28T08:31:53;100688.41;;;-1.61;68.18
75650;BME280;64245;51.282;22.494;2023-02-28T08:34:18;100681.34;;;-1.60;68.13
75650;BME280;64245;51.282;22.494;2023-02-28T08:36:44;100689.16;;;-1.56;68.11
75650;BME280;64245;51.282;22.494;2023-02-28T08:39:11;100694.56;;;-1.23;66.99
75650;BME280;64245;51.282;22.494;2023-02-28T08:41:37;100690.25;;;-1.27;66.51
75650;BME280;64245;51.282;22.494;2023-02-28T08:44:03;100688.56;;;-1.30;67.32
75650;BME280;64245;51.282;22.494;2023-02-28T08:46:29;100686.94;;;-1.35;66.21
75650;BME280;64245;51.282;22.494;2023-02-28T08:48:56;100694.22;;;-1.10;65.66
75650;BME280;64245;51.282;22.494;2023-02-28T08:51:26;100687.69;;;-0.95;64.60
75650;BME280;64245;51.282;22.494;2023-02-28T08:53:57;100684.06;;;-0.91;66.12
75650;BME280;64245;51.282;22.494;2023-02-28T08:56:23;100684.00;;;-0.88;65.35
75650;BME280;64245;51.282;22.494;2023-02-28T08:58:49;100676.56;;;-0.74;64.86
75650;BME280;64245;51.282;22.494;2023-02-28T09:01:21;100695.34;;;-0.50;65.91
75650;BME280;64245;51.282;22.494;2023-02-28T09:03:49;100686.28;;;-0.40;63.50
75650;BME280;64245;51.282;22.494;2023-02-28T09:06:16;100686.16;;;-0.37;62.24
75650;BME280;64245;51.282;22.494;2023-02-28T09:08:42;100683.69;;;-0.42;62.76
75650;BME280;64245;51.282;22.494;2023-02-28T09:11:08;100668.38;;;-0.63;62.44
75650;BME280;64245;51.282;22.494;2023-02-28T09:13:34;100688.34;;;-0.51;63.84
75650;BME280;64245;51.282;22.494;2023-02-28T09:16:02;100695.97;;;-0.39;61.63
75650;BME280;64245;51.282;22.494;2023-02-28T09:18:28;100691.09;;;-0.56;59.99
75650;BME280;64245;51.282;22.494;2023-02-28T09:20:54;100689.66;;;-0.67;59.93
75650;BME280;64245;51.282;22.494;2023-02-28T09:23:20;100685.81;;;-0.56;60.99
75650;BME280;64245;51.282;22.494;2023-02-28T09:25:48;100674.88;;;-0.42;61.25
75650;BME280;64245;51.282;22.494;2023-02-28T09:28:14;100701.53;;;-0.19;58.86
75650;BME280;64245;51.282;22.494;2023-02-28T09:30:48;100696.09;;;-0.13;58.95
75650;BME280;64245;51.282;22.494;2023-02-28T09:33:14;100678.75;;;0.07;58.81
75650;BME280;64245;51.282;22.494;2023-02-28T09:35:41;100683.84;;;0.14;57.70
75650;BME280;64245;51.282;22.494;2023-02-28T09:38:08;100676.44;;;-0.04;57.80
75650;BME280;64245;51.282;22.494;2023-02-28T09:40:37;100697.91;;;0.16;59.94
75650;BME280;64245;51.282;22.494;2023-02-28T09:43:04;100689.09;;;0.16;57.58
75650;BME280;64245;51.282;22.494;2023-02-28T09:45:40;100701.41;;;0.18;57.20
75650;BME280;64245;51.282;22.494;2023-02-28T09:48:12;100696.50;;;0.34;60.03
75650;BME280;64245;51.282;22.494;2023-02-28T09:53:28;100673.38;;;0.39;58.82
75650;BME280;64245;51.282;22.494;2023-02-28T09:56:07;100701.84;;;0.32;58.15
75650;BME280;64245;51.282;22.494;2023-02-28T09:58:48;100697.91;;;0.46;58.45
75650;BME280;64245;51.282;22.494;2023-02-28T10:03:56;100669.88;;;0.09;59.20
75650;BME280;64245;51.282;22.494;2023-02-28T10:06:26;100706.78;;;0.15;59.06
75650;BME280;64245;51.282;22.494;2023-02-28T10:09:04;100687.41;;;0.13;59.65
75650;BME280;64245;51.282;22.494;2023-02-28T10:11:35;100704.44;;;0.34;59.79
75650;BME280;64245;51.282;22.494;2023-02-28T10:19:34;100700.91;;;0.91;58.95
75650;BME280;64245;51.282;22.494;2023-02-28T10:22:38;100696.25;;;0.71;56.88
75650;BME280;64245;51.282;22.494;2023-02-28T10:25:23;100687.69;;;0.89;58.43
75650;BME280;64245;51.282;22.494;2023-02-28T10:27:51;100674.28;;;1.20;58.33
75650;BME280;64245;51.282;22.494;2023-02-28T10:30:18;100662.09;;;0.88;55.40
75650;BME280;64245;51.282;22.494;2023-02-28T10:32:50;100687.94;;;0.82;57.66
75650;BME280;64245;51.282;22.494;2023-02-28T10:35:23;100692.84;;;1.20;56.50
75650;BME280;64245;51.282;22.494;2023-02-28T10:38:00;100654.75;;;0.70;55.19
75650;BME280;64245;51.282;22.494;2023-02-28T10:40:35;100674.44;;;1.16;55.12
75650;BME280;64245;51.282;22.494;2023-02-28T10:43:11;100678.75;;;1.69;54.35
75650;BME280;64245;51.282;22.494;2023-02-28T10:45:55;100665.13;;;2.03;51.82
75650;BME280;64245;51.282;22.494;2023-02-28T11:01:16;100639.75;;;3.87;50.28
75650;BME280;64245;51.282;22.494;2023-02-28T11:03:42;100651.09;;;3.92;48.10
75650;BME280;64245;51.282;22.494;2023-02-28T11:06:15;100645.41;;;4.74;47.56
75650;BME280;64245;51.282;22.494;2023-02-28T11:09:23;100627.47;;;3.84;48.36
75650;BME280;64245;51.282;22.494;2023-02-28T11:11:50;100638.47;;;5.41;46.98
75650;BME280;64245;51.282;22.494;2023-02-28T11:14:24;100628.34;;;5.13;48.10
75650;BME280;64245;51.282;22.494;2023-02-28T11:16:52;100614.13;;;5.12;46.76
75650;BME280;64245;51.282;22.494;2023-02-28T11:19:34;100641.91;;;4.91;45.98
75650;BME280;64245;51.282;22.494;2023-02-28T11:22:04;100632.84;;;5.47;47.15
75650;BME280;64245;51.282;22.494;2023-02-28T11:24:34;100611.81;;;5.91;44.52
75650;BME280;64245;51.282;22.494;2023-02-28T11:27:00;100629.78;;;5.87;42.88
75650;BME280;64245;51.282;22.494;2023-02-28T11:29:33;100633.25;;;4.86;47.46
75650;BME280;64245;51.282;22.494;2023-02-28T11:32:20;100629.22;;;4.60;44.52
75650;BME280;64245;51.282;22.494;2023-02-28T11:35:23;100611.88;;;6.38;43.91
75650;BME280;64245;51.282;22.494;2023-02-28T11:37:48;100613.78;;;5.70;45.92
75650;BME280;64245;51.282;22.494;2023-02-28T11:40:19;100606.09;;;4.78;43.93
75650;BME280;64245;51.282;22.494;2023-02-28T11:42:50;100621.50;;;5.59;44.70
75650;BME280;64245;51.282;22.494;2023-02-28T11:48:27;100620.16;;;5.68;42.92
75650;BME280;64245;51.282;22.494;2023-02-28T11:51:00;100615.31;;;6.09;42.91
75650;BME280;64245;51.282;22.494;2023-02-28T11:56:38;100613.97;;;6.49;42.55
75650;BME280;64245;51.282;22.494;2023-02-28T12:04:49;100610.13;;;6.06;44.70
75650;BME280;64245;51.282;22.494;2023-02-28T12:07:35;100584.69;;;6.30;42.52
75650;BME280;64245;51.282;22.494;2023-02-28T12:10:30;100596.56;;;5.59;42.23
75650;BME280;64245;51.282;22.494;2023-02-28T12:15:50;100593.75;;;7.35;41.27
75650;BME280;64245;51.282;22.494;2023-02-28T12:18:36;100603.41;;;6.62;41.50
75650;BME280;64245;51.282;22.494;2023-02-28T12:21:20;100596.34;;;7.06;40.13
75650;BME280;64245;51.282;22.494;2023-02-28T12:24:28;100600.81;;;7.36;40.43
75650;BME280;64245;51.282;22.494;2023-02-28T12:27:07;100577.53;;;6.46;41.71
75650;BME280;64245;51.282;22.494;2023-02-28T12:29:56;100584.16;;;6.71;43.24
75650;BME280;64245;51.282;22.494;2023-02-28T12:32:33;100586.25;;;6.96;42.41
75650;BME280;64245;51.282;22.494;2023-02-28T12:40:19;100557.44;;;6.85;39.75
75650;BME280;64245;51.282;22.494;2023-02-28T12:42:49;100571.81;;;6.68;44.53
75650;BME280;64245;51.282;22.494;2023-02-28T12:45:23;100564.25;;;6.90;42.03
75650;BME280;64245;51.282;22.494;2023-02-28T12:47:54;100572.69;;;6.53;40.64
75650;BME280;64245;51.282;22.494;2023-02-28T12:50:24;100559.63;;;6.63;42.20
75650;BME280;64245;51.282;22.494;2023-02-28T13:01:01;100562.28;;;8.38;38.81
75650;BME280;64245;51.282;22.494;2023-02-28T13:09:12;100546.06;;;7.25;40.60
75650;BME280;64245;51.282;22.494;2023-02-28T13:11:42;100547.13;;;6.16;42.82
75650;BME280;64245;51.282;22.494;2023-02-28T13:19:43;100534.88;;;7.90;38.56
75650;BME280;64245;51.282;22.494;2023-02-28T13:24:49;100541.59;;;7.40;38.64
75650;BME280;64245;51.282;22.494;2023-02-28T13:27:40;100542.38;;;7.56;39.34
75650;BME280;64245;51.282;22.494;2023-02-28T13:35:44;100530.69;;;7.43;39.45
75650;BME280;64245;51.282;22.494;2023-02-28T13:38:22;100534.66;;;7.08;40.93
75650;BME280;64245;51.282;22.494;2023-02-28T13:40:49;100512.66;;;6.73;40.92
75650;BME280;64245;51.282;22.494;2023-02-28T13:43:17;100523.81;;;5.03;44.65
75650;BME280;64245;51.282;22.494;2023-02-28T13:46:13;100522.81;;;5.39;44.82
75650;BME280;64245;51.282;22.494;2023-02-28T13:48:40;100524.75;;;5.02;46.20
75650;BME280;64245;51.282;22.494;2023-02-28T13:51:38;100531.72;;;4.53;46.69
75650;BME280;64245;51.282;22.494;2023-02-28T14:05:12;100522.69;;;3.84;48.96
75650;BME280;64245;51.282;22.494;2023-02-28T14:07:45;100525.03;;;4.08;48.85
75650;BME280;64245;51.282;22.494;2023-02-28T14:10:23;100514.81;;;3.99;48.84
75650;BME280;64245;51.282;22.494;2023-02-28T14:18:00;100495.13;;;3.27;49.56
75650;BME280;64245;51.282;22.494;2023-02-28T14:20:27;100514.41;;;2.91;50.57
75650;BME280;64245;51.282;22.494;2023-02-28T14:26:03;100507.06;;;3.37;49.60
75650;BME280;64245;51.282;22.494;2023-02-28T14:29:06;100508.81;;;2.57;50.96
75650;BME280;64245;51.282;22.494;2023-02-28T14:32:25;100499.38;;;2.50;51.27
75650;BME280;64245;51.282;22.494;2023-02-28T14:34:54;100496.25;;;2.60;53.20
75650;BME280;64245;51.282;22.494;2023-02-28T14:37:30;100486.72;;;3.16;50.48
75650;BME280;64245;51.282;22.494;2023-02-28T14:39:58;100496.22;;;3.98;48.03
75650;BME280;64245;51.282;22.494;2023-02-28T14:42:32;100495.72;;;3.90;47.48
75650;BME280;64245;51.282;22.494;2023-02-28T14:44:58;100482.81;;;3.24;50.58
75650;BME280;64245;51.282;22.494;2023-02-28T14:47:28;100465.00;;;3.06;49.95
75650;BME280;64245;51.282;22.494;2023-02-28T14:49:57;100477.50;;;3.24;49.41